Terminal Aerodrome Forecast
Issued by NWS Springfield, MO

Home | Current Version | Previous Version | Text Only | Print | Product List | Glossary On
Versions: 1 2 3 4 5 6 7 8 9 10 11 12 13 14 15 16 17
000
FTUS43 KSGF 290500
TAFSGF
TAF
KSGF 290536Z 2906/3006 24011KT P6SM SCT250 WS018/27045KT
     FM290900 31010KT P6SM SKC
     FM291300 33015G24KT P6SM OVC015
     FM292200 33015G24KT P6SM BKN025
     FM300100 33007KT P6SM SKC=

USA.gov is the U.S. government's official web portal to all federal, state and local government web resources and services.